Time;durP1;ratioP1;P1;durP2;ratioP2;P2;SDS_P1;SDS_P2;PMS_P1;PMS_P2;Temp;Humidity;BMP_temperature;BMP_pressure;BME280_temperature;BME280_humidity;BME280_pressure;Samples;Min_cycle;Max_cycle;Signal;HPM_P1;HPM_P2
2021/06/13 00:01:05;;;;;;;;;;;;;;;;;;7413353;40;1022;-15
2021/06/13 00:06:25;;;;;;;;;;;;;;;;;;7412958;40;1870;-14
2021/06/13 00:12:00;;;;;;;;;;;;;;;;;;7416333;40;1536;-14
2021/06/13 00:17:35;;;;;;;;;;;;;;;;;;7412263;40;1024;-14
2021/06/13 00:23:10;;;;;;;;;;;;;;;;;;7412475;40;1517;-14
2021/06/13 00:28:31;;;;;;;;;;;;;;;;;;7412746;40;1940;-15
2021/06/13 00:33:52;;;;;;;;;;;;;;;;;;7412840;40;2407;-14
2021/06/13 00:39:13;;;;;;;;;;;;;;;;;;7412871;40;1535;-14
2021/06/13 00:44:34;;;;;;;;;;;;;;;;;;7403804;40;1034;-14
2021/06/13 00:50:12;;;;;;;;;;;;;;;;;;7412398;40;1941;-14
2021/06/13 00:55:33;;;;;;;;;;;;;;;;;;7412822;40;1016;-14
2021/06/13 01:01:07;;;;;;;;;;;;;;;;;;7412356;40;1458;-14
2021/06/13 01:06:40;;;;;;;;;;;;;;;;;;7411851;40;1890;-14
2021/06/13 01:12:04;;;;;;;;;;;;;;;;;;7412131;40;1519;-15
2021/06/13 01:17:51;;;;;;;;;;;;;;;;;;7410567;40;1025;-24
2021/06/13 01:23:38;;;;;;;;;;;;;;;;;;7412330;40;1082;-15
2021/06/13 01:29:07;;;;;;;;;;;;;;;;;;7417276;40;1874;-19
2021/06/13 01:34:44;;;;;;;;;;;;;;;;;;7410881;40;1973;-15
2021/06/13 01:40:13;;;;;;;;;;;;;;;;;;7411844;40;1523;-15
2021/06/13 01:45:50;;;;;;;;;;;;;;;;;;7409427;40;1682;-15
2021/06/13 01:51:11;;;;;;;;;;;;;;;;;;7416566;40;1242;-15
2021/06/13 01:56:36;;;;;;;;;;;;;;;;;;7410188;40;1597;-15
2021/06/13 02:02:18;;;;;;;;;;;;;;;;;;7416513;40;2084;-15
2021/06/13 02:07:41;;;;;;;;;;;;;;;;;;7410848;40;1891;-15
2021/06/13 02:13:03;;;;;;;;;;;;;;;;;;7417050;40;1279;-14
2021/06/13 02:18:27;;;;;;;;;;;;;;;;;;7410104;40;1412;-15
2021/06/13 02:23:50;;;;;;;;;;;;;;;;;;7409671;40;1327;-14
2021/06/13 02:29:26;;;;;;;;;;;;;;;;;;7403265;40;1881;-15
2021/06/13 02:35:04;;;;;;;;;;;;;;;;;;7418520;39;1248;-25
2021/06/13 02:40:32;;;;;;;;;;;;;;;;;;7413472;40;1318;-14
2021/06/13 02:45:58;;;;;;;;;;;;;;;;;;7412737;40;1371;-15
2021/06/13 02:51:21;;;;;;;;;;;;;;;;;;7413653;40;1001;-14
2021/06/13 02:56:46;;;;;;;;;;;;;;;;;;7413218;40;1878;-13
2021/06/13 03:02:09;;;;;;;;;;;;;;;;;;7414471;40;970;-14
2021/06/13 03:07:31;;;;;;;;;;;;;;;;;;7405412;40;1886;-14
2021/06/13 03:12:55;;;;;;;;;;;;;;;;;;7397578;40;1356;-14
2021/06/13 03:18:17;;;;;;;;;;;;;;;;;;7414013;40;921;-15
2021/06/13 03:23:56;;;;;;;;;;;;;;;;;;7412270;40;972;-22
2021/06/13 03:29:32;;;;;;;;;;;;;;;;;;7413817;40;1873;-14
2021/06/13 03:35:10;;;;;;;;;;;;;;;;;;7419824;40;978;-16
2021/06/13 03:40:32;;;;;;;;;;;;;;;;;;7413167;40;935;-14
2021/06/13 03:45:56;;;;;;;;;;;;;;;;;;7419066;40;1214;-14
2021/06/13 03:51:19;;;;;;;;;;;;;;;;;;7413270;40;1978;-15
2021/06/13 03:56:42;;;;;;;;;;;;;;;;;;7404660;40;1272;-15
2021/06/13 04:02:03;;;;;;;;;;;;;;;;;;7411702;40;1433;-14
2021/06/13 04:07:25;;;;;;;;;;;;;;;;;;7418553;40;1874;-15
2021/06/13 04:12:47;;;;;;;;;;;;;;;;;;7411248;40;1307;-14
2021/06/13 04:18:23;;;;;;;;;;;;;;;;;;7412799;40;1417;-14
2021/06/13 04:23:45;;;;;;;;;;;;;;;;;;7425743;39;1144;-14
2021/06/13 04:29:05;;;;;;;;;;;;;;;;;;7413160;40;2038;-14
2021/06/13 04:34:26;;;;;;;;;;;;;;;;;;7411597;40;1172;-14
2021/06/13 04:39:47;;;;;;;;;;;;;;;;;;7411656;40;1519;-14
2021/06/13 04:45:22;;;;;;;;;;;;;;;;;;7411170;40;1268;-14
2021/06/13 04:50:43;;;;;;;;;;;;;;;;;;7404316;40;1886;-14
2021/06/13 04:56:07;;;;;;;;;;;;;;;;;;7396106;40;1502;-14
2021/06/13 05:01:29;;;;;;;;;;;;;;;;;;7412318;40;1113;-14
2021/06/13 05:06:49;;;;;;;;;;;;;;;;;;7412904;40;1878;-14
2021/06/13 05:12:24;;;;;;;;;;;;;;;;;;7410759;40;1303;-14
2021/06/13 05:17:45;;;;;;;;;;;;;;;;;;7412195;40;1411;-14
2021/06/13 05:23:21;;;;;;;;;;;;;;;;;;7411947;40;1324;-14
2021/06/13 05:28:43;;;;;;;;;;;;;;;;;;7416675;40;1944;-15
2021/06/13 05:34:17;;;;;;;;;;;;;;;;;;7418002;40;1480;-14
2021/06/13 05:39:38;;;;;;;;;;;;;;;;;;7412120;40;1084;-15
2021/06/13 05:45:13;;;;;;;;;;;;;;;;;;7410765;40;1356;-15
2021/06/13 05:50:34;;;;;;;;;;;;;;;;;;7411634;40;1890;-15
2021/06/13 05:55:55;;;;;;;;;;;;;;;;;;7417775;40;1416;-16
2021/06/13 06:01:16;;;;;;;;;;;;;;;;;;7409145;40;1802;-16
2021/06/13 06:06:37;;;;;;;;;;;;;;;;;;7416721;40;1422;-13
2021/06/13 06:12:12;;;;;;;;;;;;;;;;;;7163199;40;10000142;-13
2021/06/13 06:17:48;;;;;;;;;;;;;;;;;;7411908;40;1115;-14
2021/06/13 06:23:09;;;;;;;;;;;;;;;;;;7412394;40;1305;-13
2021/06/13 06:28:43;;;;;;;;;;;;;;;;;;7411931;40;1947;-13
2021/06/13 06:34:04;;;;;;;;;;;;;;;;;;7412077;40;1104;-13
2021/06/13 06:39:25;;;;;;;;;;;;;;;;;;7418493;40;1122;-14
2021/06/13 06:44:46;;;;;;;;;;;;;;;;;;7391254;40;1737;-15
2021/06/13 06:50:07;;;;;;;;;;;;;;;;;;7391288;40;1866;-14
2021/06/13 06:55:28;;;;;;;;;;;;;;;;;;7391121;40;1099;-14
2021/06/13 07:01:02;;;;;;;;;;;;;;;;;;7390561;40;1303;-14
2021/06/13 07:06:24;;;;;;;;;;;;;;;;;;7381491;40;1491;-14
2021/06/13 07:11:45;;;;;;;;;;;;;;;;;;7404645;40;2870;-15
2021/06/13 07:17:05;;;;;;;;;;;;;;;;;;7423506;40;1674;-14
2021/06/13 07:22:26;;;;;;;;;;;;;;;;;;7431269;39;1535;-14
2021/06/13 07:28:01;;;;;;;;;;;;;;;;;;7413165;40;1961;-14
2021/06/13 07:33:36;;;;;;;;;;;;;;;;;;7410927;40;1110;-14
2021/06/13 07:38:57;;;;;;;;;;;;;;;;;;7408921;40;1151;-14
2021/06/13 07:44:31;;;;;;;;;;;;;;;;;;7411030;40;1080;-13
2021/06/13 07:49:52;;;;;;;;;;;;;;;;;;7410234;40;1878;-13
2021/06/13 07:55:15;;;;;;;;;;;;;;;;;;7409009;40;1080;-13
2021/06/13 08:00:50;;;;;;;;;;;;;;;;;;7409519;40;1276;-14
2021/06/13 08:06:11;;;;;;;;;;;;;;;;;;7410776;40;1061;-14
2021/06/13 08:11:33;;;;;;;;;;;;;;;;;;7401543;40;2808;-15
2021/06/13 08:17:07;;;;;;;;;;;;;;;;;;7410209;40;1128;-15
2021/06/13 08:22:28;;;;;;;;;;;;;;;;;;7412014;40;1018;-15
2021/06/13 08:27:49;;;;;;;;;;;;;;;;;;7403880;40;1902;-15
2021/06/13 08:33:11;;;;;;;;;;;;;;;;;;7416093;40;1094;-14
2021/06/13 08:38:32;;;;;;;;;;;;;;;;;;7394033;40;1661;-14
2021/06/13 08:43:53;;;;;;;;;;;;;;;;;;7409878;40;1170;-16
2021/06/13 08:49:14;;;;;;;;;;;;;;;;;;7410055;40;1978;-14
2021/06/13 08:54:49;;;;;;;;;;;;;;;;;;7409150;40;987;-15
2021/06/13 09:00:14;;;;;;;;;;;;;;;;;;7410004;40;1164;-14
2021/06/13 09:05:35;;;;;;;;;;;;;;;;;;7410078;40;954;-14
2021/06/13 09:10:56;;;;;;;;;;;;;;;;;;7400969;40;2660;-14
2021/06/13 09:16:17;;;;;;;;;;;;;;;;;;7408692;40;1648;-14
2021/06/13 09:21:39;;;;;;;;;;;;;;;;;;7409818;40;1195;-14
2021/06/13 09:27:07;;;;;;;;;;;;;;;;;;7409209;40;1223;-14
2021/06/13 09:32:29;;;;;;;;;;;;;;;;;;7407426;40;1269;-14
2021/06/13 09:38:10;;;;;;;;;;;;;;;;;;7409926;40;2722;-15
2021/06/13 09:43:35;;;;;;;;;;;;;;;;;;7406323;39;1324;-14
2021/06/13 09:49:02;;;;;;;;;;;;;;;;;;7404433;40;1882;-14
2021/06/13 09:54:37;;;;;;;;;;;;;;;;;;7418114;40;1102;-13
2021/06/13 10:00:18;;;;;;;;;;;;;;;;;;7410801;40;1528;-14
2021/06/13 10:05:53;;;;;;;;;;;;;;;;;;7412204;40;1217;-14
2021/06/13 10:11:15;;;;;;;;;;;;;;;;;;7412490;40;1915;-14
2021/06/13 10:16:43;;;;;;;;;;;;;;;;;;7412764;40;1113;-14
2021/06/13 10:22:04;;;;;;;;;;;;;;;;;;7412355;40;1413;-14
2021/06/13 10:27:25;;;;;;;;;;;;;;;;;;7412607;40;1890;-13
2021/06/13 10:32:47;;;;;;;;;;;;;;;;;;7410435;40;1023;-14
2021/06/13 10:38:08;;;;;;;;;;;;;;;;;;7417644;40;2678;-14
2021/06/13 10:43:30;;;;;;;;;;;;;;;;;;7412141;40;1933;-14
2021/06/13 10:49:05;;;;;;;;;;;;;;;;;;7411853;40;1887;-14
2021/06/13 10:54:29;;;;;;;;;;;;;;;;;;7414777;39;1163;-14
2021/06/13 10:59:51;;;;;;;;;;;;;;;;;;7415755;40;1462;-14
2021/06/13 11:05:13;;;;;;;;;;;;;;;;;;7410607;40;1665;-14
2021/06/13 11:10:35;;;;;;;;;;;;;;;;;;7403026;40;1950;-14
2021/06/13 11:16:00;;;;;;;;;;;;;;;;;;7416611;40;2756;-14
2021/06/13 11:21:35;;;;;;;;;;;;;;;;;;7403492;40;1622;-14
2021/06/13 11:27:04;;;;;;;;;;;;;;;;;;7412320;40;1146;-14
2021/06/13 11:32:48;;;;;;;;;;;;;;;;;;7413609;40;1429;-15
2021/06/13 11:38:10;;;;;;;;;;;;;;;;;;7430982;40;909;-15
2021/06/13 11:43:34;;;;;;;;;;;;;;;;;;7404423;40;1765;-15
2021/06/13 11:48:56;;;;;;;;;;;;;;;;;;7410954;40;1953;-15
2021/06/13 11:54:35;;;;;;;;;;;;;;;;;;7424943;40;1370;-15
2021/06/13 12:00:09;;;;;;;;;;;;;;;;;;7431836;40;1725;-13
2021/06/13 12:05:31;;;;;;;;;;;;;;;;;;7432167;39;998;-13
2021/06/13 12:10:52;;;;;;;;;;;;;;;;;;7431994;40;1906;-14
2021/06/13 12:16:14;;;;;;;;;;;;;;;;;;7429640;40;3391;-13
2021/06/13 12:21:36;;;;;;;;;;;;;;;;;;7402180;40;1552;-13
2021/06/13 12:27:22;;;;;;;;;;;;;;;;;;7415038;40;1591;-13
2021/06/13 12:32:54;;;;;;;;;;;;;;;;;;7415376;40;1889;-13
2021/06/13 12:38:23;;;;;;;;;;;;;;;;;;7410104;40;1144;-14
2021/06/13 12:43:46;;;;;;;;;;;;;;;;;;7416041;40;1677;-14
2021/06/13 12:49:21;;;;;;;;;;;;;;;;;;7410551;40;2136;-13
2021/06/13 12:54:43;;;;;;;;;;;;;;;;;;7408902;40;978;-13
2021/06/13 13:00:08;;;;;;;;;;;;;;;;;;7408561;40;1253;-13
2021/06/13 13:05:29;;;;;;;;;;;;;;;;;;7401421;40;1118;-15
2021/06/13 13:11:05;;;;;;;;;;;;;;;;;;7400978;40;1884;-14
2021/06/13 13:16:27;;;;;;;;;;;;;;;;;;7400648;40;3094;-14
2021/06/13 13:21:48;;;;;;;;;;;;;;;;;;7409642;40;1595;-13
2021/06/13 13:27:09;;;;;;;;;;;;;;;;;;7401448;40;1153;-14
2021/06/13 13:32:30;;;;;;;;;;;;;;;;;;7409639;40;1876;-15
2021/06/13 13:38:06;;;;;;;;;;;;;;;;;;7414344;40;1235;-14
2021/06/13 13:43:27;;;;;;;;;;;;;;;;;;7415197;40;1279;-14
2021/06/13 13:48:52;;;;;;;;;;;;;;;;;;7421715;40;2198;-14
2021/06/13 13:54:43;;;;;;;;;;;;;;;;;;7409758;40;911;-14
2021/06/13 14:00:04;;;;;;;;;;;;;;;;;;7406817;40;1451;-14
2021/06/13 14:05:27;;;;;;;;;;;;;;;;;;7400693;40;1169;-14
2021/06/13 14:10:48;;;;;;;;;;;;;;;;;;7408302;40;1959;-14
2021/06/13 14:16:09;;;;;;;;;;;;;;;;;;7409246;40;1106;-14
2021/06/13 14:21:31;;;;;;;;;;;;;;;;;;7400669;40;2959;-13
2021/06/13 14:26:52;;;;;;;;;;;;;;;;;;7406953;40;1686;-13
2021/06/13 14:32:13;;;;;;;;;;;;;;;;;;7412136;40;1945;-15
2021/06/13 14:37:35;;;;;;;;;;;;;;;;;;7401139;40;1780;-15
2021/06/13 14:43:14;;;;;;;;;;;;;;;;;;7411424;40;1494;-15
2021/06/13 14:48:35;;;;;;;;;;;;;;;;;;7411711;40;1939;-15
2021/06/13 14:53:55;;;;;;;;;;;;;;;;;;7411216;40;1963;-15
2021/06/13 14:59:30;;;;;;;;;;;;;;;;;;7415543;40;1514;-15
2021/06/13 15:04:51;;;;;;;;;;;;;;;;;;7396271;40;1306;-14
2021/06/13 15:10:25;;;;;;;;;;;;;;;;;;7411222;40;1894;-15
2021/06/13 15:15:47;;;;;;;;;;;;;;;;;;7395247;40;1315;-14
2021/06/13 15:21:08;;;;;;;;;;;;;;;;;;7409637;40;2963;-15
2021/06/13 15:26:29;;;;;;;;;;;;;;;;;;7411447;40;1635;-15
2021/06/13 15:31:52;;;;;;;;;;;;;;;;;;7406475;40;1951;-14
2021/06/13 15:37:13;;;;;;;;;;;;;;;;;;7409723;40;1396;-14
2021/06/13 15:42:34;;;;;;;;;;;;;;;;;;7411499;40;1021;-13
2021/06/13 15:47:56;;;;;;;;;;;;;;;;;;7416382;40;1553;-14
2021/06/13 15:53:17;;;;;;;;;;;;;;;;;;7416721;40;1915;-14
2021/06/13 15:58:39;;;;;;;;;;;;;;;;;;7412426;40;1161;-14
2021/06/13 16:04:00;;;;;;;;;;;;;;;;;;7410898;40;1208;-14
2021/06/13 16:09:36;;;;;;;;;;;;;;;;;;7410231;40;1952;-14
2021/06/13 16:14:57;;;;;;;;;;;;;;;;;;7411044;40;1244;-14
2021/06/13 16:20:32;;;;;;;;;;;;;;;;;;7409949;40;1191;-14
2021/06/13 16:25:53;;;;;;;;;;;;;;;;;;7410167;40;2526;-14
2021/06/13 16:31:28;;;;;;;;;;;;;;;;;;7401839;40;1878;-14
2021/06/13 16:36:49;;;;;;;;;;;;;;;;;;7408784;40;1265;-14
2021/06/13 16:42:10;;;;;;;;;;;;;;;;;;7418456;40;1352;-14
2021/06/13 16:47:31;;;;;;;;;;;;;;;;;;7412931;40;1198;-14
2021/06/13 16:52:53;;;;;;;;;;;;;;;;;;7409108;40;1949;-14
2021/06/13 16:58:28;;;;;;;;;;;;;;;;;;7391124;40;2367;-14
2021/06/13 17:03:49;;;;;;;;;;;;;;;;;;7394979;40;1164;-13
2021/06/13 17:09:10;;;;;;;;;;;;;;;;;;7389606;40;1878;-14
2021/06/13 17:14:45;;;;;;;;;;;;;;;;;;7415876;40;1156;-14
2021/06/13 17:20:06;;;;;;;;;;;;;;;;;;7422423;40;1176;-14
2021/06/13 17:25:29;;;;;;;;;;;;;;;;;;7425155;40;2599;-14
2021/06/13 17:30:51;;;;;;;;;;;;;;;;;;7409261;40;1937;-15
2021/06/13 17:36:19;;;;;;;;;;;;;;;;;;7386474;40;1180;-15
2021/06/13 17:41:46;;;;;;;;;;;;;;;;;;7401366;40;1401;-15
2021/06/13 17:47:09;;;;;;;;;;;;;;;;;;7388526;40;1461;-15
2021/06/13 17:52:31;;;;;;;;;;;;;;;;;;7386914;40;1970;-15
2021/06/13 17:58:08;;;;;;;;;;;;;;;;;;7389731;40;934;-14
2021/06/13 18:03:28;;;;;;;;;;;;;;;;;;7408215;40;1328;-14
2021/06/13 18:08:49;;;;;;;;;;;;;;;;;;7415225;40;2319;-14
2021/06/13 18:14:11;;;;;;;;;;;;;;;;;;7406155;40;1261;-15
2021/06/13 18:19:32;;;;;;;;;;;;;;;;;;7404792;40;1037;-15
2021/06/13 18:24:53;;;;;;;;;;;;;;;;;;7412741;40;1042;-15
2021/06/13 18:30:15;;;;;;;;;;;;;;;;;;7414700;40;1890;-14
2021/06/13 18:35:38;;;;;;;;;;;;;;;;;;7410754;40;1005;-14
2021/06/13 18:40:59;;;;;;;;;;;;;;;;;;7410430;40;942;-15
2021/06/13 18:46:20;;;;;;;;;;;;;;;;;;7393887;40;1118;-14
2021/06/13 18:51:42;;;;;;;;;;;;;;;;;;7403466;40;1890;-14
2021/06/13 18:57:20;;;;;;;;;;;;;;;;;;7397918;40;1137;-13
2021/06/13 19:02:41;;;;;;;;;;;;;;;;;;7397733;40;1281;-14
2021/06/13 19:08:03;;;;;;;;;;;;;;;;;;7411762;40;1533;-14
2021/06/13 19:13:39;;;;;;;;;;;;;;;;;;7414106;40;1939;-14
2021/06/13 19:19:00;;;;;;;;;;;;;;;;;;7411986;40;1589;-13
2021/06/13 19:24:21;;;;;;;;;;;;;;;;;;7404865;40;1362;-14
2021/06/13 19:29:56;;;;;;;;;;;;;;;;;;7413690;40;1941;-15
2021/06/13 19:39:08;;;;;;;;;;;;;;;;;;7535424;39;1293;-42
2021/06/13 19:50:13;;;;;;;;;;;;;;;;;;6745293;39;10000461;-30
2021/06/13 19:54:34;;;;;;;;;;;;;;;;;;234426;39;11346;-22
2021/06/13 19:55:07;;;;;;;;;;;;;;;;;;247565;39;11302;-21
2021/06/13 19:55:56;;;;;;;;;;;;;;;;;;247090;39;11300;-28
2021/06/13 19:56:30;;;;;;;;;;;;;;;;;;174986;39;10002374;-42
2021/06/13 19:57:25;;;;;;;;;;;;;;;;;;246486;39;5734;-41
2021/06/13 19:57:45;;;;;;;;;;;;;;;;;;247621;39;11673;-20
2021/06/13 19:58:17;;;;;;;;;;;;;;;;;;248246;39;672;-20
2021/06/13 19:58:49;;;;;;;;;;;;;;;;;;18802;39;10000121;-26
2021/06/13 19:59:39;;;;;;;;;;;;;;;;;;2;10000992;10000992;-23
2021/06/13 20:00:10;;;;;;;;;;;;;;;;;;245469;39;10374;-25
2021/06/13 20:00:41;;;;;;;;;;;;;;;;;;248227;39;668;-22
2021/06/13 20:01:14;;;;;;;;;;;;;;;;;;245356;40;13515;-26
2021/06/13 20:02:00;;;;;;;;;;;;;;;;;;240382;40;94532;-17
2021/06/13 20:02:31;;;;;;;;;;;;;;;;;;245149;40;9155;-40
2021/06/13 20:03:02;;;;;;;;;;;;;;;;;;247073;40;10436;-39
2021/06/13 20:03:35;;;;;;;;;;;;;;;;;;245327;40;1068;-10
2021/06/13 20:04:05;;;;;;;;;;;;;;;;;;251070;39;1314;-22
2021/06/13 20:04:36;;;;;;;;;;;;;;;;;;251174;39;679;-24
2021/06/13 20:05:21;;;;;;;;;;;;;;;;;;250380;39;963;-37
2021/06/13 20:05:53;;;;;;;;;;;;;;;;;;247512;39;12596;-38
2021/06/13 20:06:38;;;;;;;;;;;;;;;;;;245615;40;10261;-36
2021/06/13 20:07:09;;;;;;;;;;;;;;;;;;246863;40;648;-32
2021/06/13 20:07:56;;;;;;;;;;;;;;;;;;247164;40;981;-35
2021/06/13 20:08:26;;;;;;;;;;;;;;;;;;248915;39;668;-35
2021/06/13 20:09:02;;;;;;;;;;;;;;;;;;246934;40;10018;-39
2021/06/13 20:09:34;;;;;;;;;;;;;;;;;;226154;39;13595;-40
2021/06/13 20:10:07;;;;;;;;;;;;;;;;;;226534;40;11202;-38
2021/06/13 20:10:37;;;;;;;;;;;;;;;;;;230140;40;70651;-38
